Time;durP1;ratioP1;P1;durP2;ratioP2;P2;SDS_P1;SDS_P2;PMS_P1;PMS_P2;Temp;Humidity;BMP_temperature;BMP_pressure;BME280_temperature;BME280_humidity;BME280_pressure;Samples;Min_cycle;Max_cycle;Signal;HPM_P1;HPM_P2
2022/10/08 00:01:04;;;;;;;9.65;2.70;;;11.70;99.90;;;;;;5073223;28;20029;-76
2022/10/08 00:03:33;;;;;;;6.15;2.25;;;11.80;99.90;;;;;;5073475;28;20039;-77
2022/10/08 00:06:03;;;;;;;4.25;2.40;;;11.80;99.90;;;;;;5073682;28;20107;-76
2022/10/08 00:08:32;;;;;;;9.65;2.75;;;11.70;99.90;;;;;;5073211;28;20099;-75
2022/10/08 00:11:00;;;;;;;6.72;2.50;;;11.70;99.90;;;;;;5073917;28;20028;-76
2022/10/08 00:13:28;;;;;;;7.35;3.30;;;11.60;99.90;;;;;;5073629;28;20464;-76
2022/10/08 00:15:55;;;;;;;7.90;2.95;;;11.70;99.90;;;;;;5073083;28;20493;-75
2022/10/08 00:18:21;;;;;;;6.10;2.80;;;11.90;99.90;;;;;;5073103;28;20028;-76
2022/10/08 00:20:47;;;;;;;6.07;2.80;;;11.90;99.90;;;;;;5073360;28;20027;-76
2022/10/08 00:23:13;;;;;;;8.63;3.08;;;11.90;99.90;;;;;;5073335;28;20063;-76
2022/10/08 00:25:43;;;;;;;6.45;2.53;;;11.80;99.90;;;;;;5073181;28;20465;-76
2022/10/08 00:28:10;;;;;;;6.22;3.30;;;11.80;99.90;;;;;;5073605;28;20051;-77
2022/10/08 00:30:38;;;;;;;7.18;2.35;;;11.90;99.90;;;;;;5077569;28;20021;-75
2022/10/08 00:33:03;;;;;;;7.47;2.83;;;12.00;99.90;;;;;;5059010;28;20020;-76
2022/10/08 00:35:29;;;;;;;9.57;2.92;;;12.10;99.90;;;;;;5077242;28;20033;-76
2022/10/08 00:37:55;;;;;;;10.15;2.50;;;12.20;99.90;;;;;;5076883;28;20032;-77
2022/10/08 00:40:20;;;;;;;6.00;2.70;;;11.90;99.90;;;;;;5076862;28;20027;-76
2022/10/08 00:42:46;;;;;;;5.85;2.80;;;11.90;99.90;;;;;;5076822;28;20032;-74
2022/10/08 00:45:12;;;;;;;6.47;2.42;;;11.90;99.90;;;;;;5058726;28;20556;-75
2022/10/08 00:47:52;;;;;;;4.53;2.30;;;11.90;99.90;;;;;;5058797;28;20060;-76
2022/10/08 00:50:31;;;;;;;6.63;2.85;;;11.70;99.90;;;;;;5076697;28;20469;-75
2022/10/08 00:53:04;;;;;;;9.18;2.75;;;11.70;99.90;;;;;;5076911;28;20025;-77
2022/10/08 00:55:31;;;;;;;4.68;2.22;;;11.80;99.90;;;;;;5076516;28;20028;-75
2022/10/08 00:58:01;;;;;;;2.88;2.22;;;11.90;99.90;;;;;;5076759;28;20056;-75
2022/10/08 01:00:28;;;;;;;6.00;2.38;;;12.00;99.90;;;;;;5076653;28;20443;-76
2022/10/08 01:02:54;;;;;;;3.65;1.90;;;12.00;99.90;;;;;;5076325;28;20024;-77
2022/10/08 01:05:39;;;;;;;3.88;2.30;;;12.10;99.90;;;;;;5076737;28;20029;-76
2022/10/08 01:08:24;;;;;;;9.10;2.70;;;12.20;99.90;;;;;;5076831;28;20029;-75
2022/10/08 01:11:24;;;;;;;5.80;2.60;;;12.30;99.90;;;;;;5058537;28;20032;-76
2022/10/08 01:14:11;;;;;;;7.72;2.50;;;12.30;99.90;;;;;;5076832;28;20048;-75
2022/10/08 01:17:02;;;;;;;5.82;2.60;;;12.30;99.90;;;;;;5076421;28;20392;-76
2022/10/08 01:19:54;;;;;;;6.97;2.80;;;12.30;99.90;;;;;;5076419;28;20380;-77
2022/10/08 01:22:42;;;;;;;6.60;2.95;;;12.20;99.90;;;;;;5071437;28;20087;-74
2022/10/08 01:25:33;;;;;;;8.98;3.38;;;12.30;99.90;;;;;;5076233;28;20048;-76
2022/10/08 01:28:13;;;;;;;8.43;3.03;;;12.30;99.90;;;;;;5075696;28;20554;-76
2022/10/08 01:30:50;;;;;;;5.15;2.50;;;12.30;99.90;;;;;;5076531;28;20066;-75
2022/10/08 01:33:25;;;;;;;5.78;3.13;;;12.30;99.90;;;;;;5075859;28;20112;-78
2022/10/08 01:35:56;;;;;;;4.30;2.53;;;12.30;99.90;;;;;;5075846;28;20024;-76
2022/10/08 01:38:24;;;;;;;5.97;2.20;;;12.40;99.90;;;;;;5076079;28;20078;-76
2022/10/08 01:40:53;;;;;;;5.82;2.50;;;12.40;99.90;;;;;;5075010;28;20577;-75
2022/10/08 01:43:22;;;;;;;6.03;2.88;;;12.20;99.90;;;;;;5057696;28;20446;-76
2022/10/08 01:45:55;;;;;;;8.18;2.88;;;12.20;99.90;;;;;;5075577;28;20035;-75
2022/10/08 01:48:30;;;;;;;5.57;3.30;;;12.30;99.90;;;;;;5057359;28;20404;-76
2022/10/08 01:51:15;;;;;;;6.20;3.40;;;12.40;99.90;;;;;;5075534;28;20020;-76
2022/10/08 01:53:44;;;;;;;4.82;2.70;;;12.40;99.90;;;;;;5076069;28;20024;-76
2022/10/08 01:56:17;;;;;;;6.15;2.60;;;12.30;99.90;;;;;;5075405;28;20027;-76
2022/10/08 01:59:00;;;;;;;7.47;2.70;;;12.30;99.90;;;;;;5075696;28;20067;-75
2022/10/08 02:01:31;;;;;;;7.45;3.00;;;12.30;99.90;;;;;;5075918;28;20093;-75
2022/10/08 02:06:46;;;;;;;6.60;2.80;;;12.50;99.90;;;;;;5074975;28;20085;-75
2022/10/08 02:09:12;;;;;;;7.00;2.80;;;12.40;99.90;;;;;;5075499;28;20067;-75
2022/10/08 02:11:37;;;;;;;4.45;3.00;;;12.40;99.90;;;;;;5075958;28;20553;-75
2022/10/08 02:14:04;;;;;;;13.20;3.17;;;12.50;99.90;;;;;;5075642;28;20027;-76
2022/10/08 02:16:33;;;;;;;9.27;3.40;;;12.50;99.90;;;;;;5075350;28;20151;-77
2022/10/08 02:19:32;;;;;;;7.30;2.80;;;12.40;99.90;;;;;;5074975;28;20465;-76
2022/10/08 02:22:00;;;;;;;7.07;2.50;;;12.50;99.90;;;;;;5075499;28;20476;-76
2022/10/08 02:24:51;;;;;;;6.78;3.17;;;12.50;99.90;;;;;;5074889;28;20021;-76
2022/10/08 02:27:32;;;;;;;7.63;2.85;;;12.60;99.90;;;;;;5074734;28;20432;-76
2022/10/08 02:30:07;;;;;;;5.60;2.58;;;12.60;99.90;;;;;;5074782;28;20029;-76
2022/10/08 02:32:54;;;;;;;8.07;2.83;;;12.70;99.90;;;;;;5057268;28;20038;-76
2022/10/08 02:35:24;;;;;;;8.32;2.95;;;12.70;99.90;;;;;;5074958;28;20393;-76
2022/10/08 02:38:19;;;;;;;9.35;3.50;;;12.60;99.90;;;;;;5056651;28;20492;-77
2022/10/08 02:40:50;;;;;;;6.72;3.10;;;12.60;99.90;;;;;;5074843;28;20060;-76
2022/10/08 02:43:20;;;;;;;7.03;3.13;;;12.70;99.90;;;;;;5056282;28;20021;-76
2022/10/08 02:46:13;;;;;;;6.28;2.70;;;12.60;99.90;;;;;;5075242;28;20021;-77
2022/10/08 02:48:54;;;;;;;9.88;3.53;;;12.60;99.90;;;;;;5074639;28;20481;-77
2022/10/08 02:51:20;;;;;;;5.82;3.00;;;12.60;99.90;;;;;;5074113;28;20021;-77
2022/10/08 02:53:48;;;;;;;6.55;3.10;;;12.60;99.90;;;;;;5074249;28;20465;-76
2022/10/08 02:56:16;;;;;;;7.43;3.40;;;12.70;99.90;;;;;;5074273;28;20108;-76
2022/10/08 02:58:42;;;;;;;7.10;3.55;;;12.70;99.90;;;;;;5074468;28;20031;-75
2022/10/08 03:01:38;;;;;;;6.10;3.00;;;12.80;99.90;;;;;;5074127;28;20032;-76
2022/10/08 03:04:58;;;;;;;11.23;3.15;;;12.70;99.90;;;;;;5074366;28;20032;-76
2022/10/08 03:07:27;;;;;;;5.35;3.13;;;12.70;99.90;;;;;;5069965;28;20047;-75
2022/10/08 03:09:55;;;;;;;6.65;3.03;;;12.70;99.90;;;;;;5073997;28;20029;-76
2022/10/08 03:12:21;;;;;;;8.00;3.30;;;12.70;99.90;;;;;;5074720;28;20032;-77
2022/10/08 03:14:48;;;;;;;6.95;3.30;;;12.70;99.90;;;;;;5073828;28;20419;-76
2022/10/08 03:17:20;;;;;;;6.22;3.30;;;12.60;99.90;;;;;;5073815;28;20028;-76
2022/10/08 03:19:45;;;;;;;7.93;3.75;;;12.60;99.90;;;;;;5073823;28;20500;-76
2022/10/08 03:22:11;;;;;;;7.57;3.47;;;12.60;99.90;;;;;;5073760;28;20021;-75
2022/10/08 03:24:37;;;;;;;9.15;3.63;;;12.70;99.90;;;;;;5073734;28;20020;-77
2022/10/08 03:27:03;;;;;;;8.82;3.15;;;12.60;99.90;;;;;;5055414;28;20083;-76
2022/10/08 03:29:28;;;;;;;9.63;3.95;;;12.60;99.90;;;;;;5074231;28;20024;-76
2022/10/08 03:31:54;;;;;;;8.40;3.58;;;12.70;99.90;;;;;;5073619;28;20021;-77
2022/10/08 03:34:20;;;;;;;8.15;4.38;;;12.70;99.90;;;;;;5073497;28;20362;-75
2022/10/08 03:36:46;;;;;;;6.68;3.50;;;12.80;99.90;;;;;;5073561;28;20031;-75
2022/10/08 03:39:12;;;;;;;7.32;3.58;;;12.80;99.90;;;;;;5073520;28;20469;-77
2022/10/08 03:41:38;;;;;;;8.13;3.80;;;12.80;99.90;;;;;;5055564;28;20489;-76
2022/10/08 03:44:07;;;;;;;8.43;4.28;;;12.80;99.90;;;;;;5073766;28;20028;-76
2022/10/08 03:46:33;;;;;;;8.25;3.80;;;12.80;99.90;;;;;;5073354;28;20020;-76
2022/10/08 03:48:59;;;;;;;9.13;4.35;;;12.80;99.90;;;;;;5073407;28;20484;-76
2022/10/08 03:51:25;;;;;;;9.30;3.60;;;12.80;99.90;;;;;;5073684;28;20025;-76
2022/10/08 03:53:50;;;;;;;13.68;4.88;;;12.80;99.90;;;;;;5073385;28;20025;-76
2022/10/08 03:56:19;;;;;;;8.55;3.50;;;12.80;99.90;;;;;;5073310;28;20108;-76
2022/10/08 03:58:46;;;;;;;6.97;3.97;;;12.80;99.90;;;;;;5073566;28;20032;-76
2022/10/08 04:01:14;;;;;;;11.15;3.40;;;12.80;99.90;;;;;;5073536;28;20350;-76
2022/10/08 04:03:40;;;;;;;11.15;4.40;;;12.80;99.90;;;;;;5072888;28;20037;-76
2022/10/08 04:06:06;;;;;;;9.55;3.60;;;12.90;99.90;;;;;;5055161;28;20051;-76
2022/10/08 04:08:33;;;;;;;10.38;3.97;;;12.80;99.90;;;;;;5055244;28;20024;-74
2022/10/08 04:11:04;;;;;;;7.03;3.72;;;12.70;99.90;;;;;;5055611;28;20036;-76
2022/10/08 04:13:29;;;;;;;9.75;4.50;;;12.70;99.90;;;;;;5073131;28;20020;-76
2022/10/08 04:16:04;;;;;;;8.52;3.65;;;12.70;99.90;;;;;;5073658;28;20032;-76
2022/10/08 04:18:29;;;;;;;7.82;3.55;;;12.70;99.90;;;;;;5073407;28;20443;-76
2022/10/08 04:20:59;;;;;;;9.02;4.35;;;12.70;99.90;;;;;;5073338;28;20043;-75
2022/10/08 04:23:26;;;;;;;9.57;4.05;;;12.80;99.90;;;;;;5072983;28;20033;-75
2022/10/08 04:25:53;;;;;;;6.70;3.42;;;12.80;99.90;;;;;;5073214;28;20540;-75
2022/10/08 04:28:20;;;;;;;11.30;3.63;;;12.80;99.90;;;;;;5072715;28;20041;-76
2022/10/08 04:30:59;;;;;;;10.13;4.30;;;12.80;99.90;;;;;;5072930;28;20017;-75
2022/10/08 04:33:26;;;;;;;6.15;3.70;;;12.80;99.90;;;;;;5073484;28;20029;-75
2022/10/08 04:35:51;;;;;;;10.65;3.75;;;12.80;99.90;;;;;;5073103;28;20408;-76
2022/10/08 04:38:17;;;;;;;6.25;3.45;;;12.80;99.90;;;;;;5073168;28;20104;-76
2022/10/08 04:40:43;;;;;;;9.98;4.45;;;12.80;99.90;;;;;;5072883;28;20035;-77
2022/10/08 04:43:08;;;;;;;7.53;3.70;;;12.90;99.90;;;;;;5073104;28;20419;-76
2022/10/08 04:45:39;;;;;;;4.63;3.00;;;12.80;99.90;;;;;;5072771;28;20047;-76
2022/10/08 04:48:05;;;;;;;9.15;3.47;;;12.80;99.90;;;;;;5072855;28;20033;-76
2022/10/08 04:50:31;;;;;;;8.23;3.40;;;12.90;99.90;;;;;;5072823;28;20028;-75
2022/10/08 04:52:56;;;;;;;5.78;3.40;;;12.90;99.90;;;;;;5072785;28;20029;-75
2022/10/08 04:55:23;;;;;;;8.45;3.63;;;12.90;99.90;;;;;;5072746;28;20028;-76
2022/10/08 04:57:49;;;;;;;7.40;4.00;;;12.90;99.90;;;;;;5072688;28;20029;-76
2022/10/08 05:00:15;;;;;;;6.20;3.20;;;12.90;99.90;;;;;;5073232;28;20024;-76
2022/10/08 05:02:40;;;;;;;8.00;3.28;;;13.00;99.90;;;;;;5073207;28;20377;-76
2022/10/08 05:05:06;;;;;;;6.40;3.22;;;12.90;99.90;;;;;;5072547;28;20025;-75
2022/10/08 05:07:32;;;;;;;7.88;4.80;;;12.90;99.90;;;;;;5072657;28;20021;-76
2022/10/08 05:09:57;;;;;;;9.52;3.60;;;12.90;99.90;;;;;;5072576;28;20025;-76
2022/10/08 05:12:23;;;;;;;11.40;3.30;;;12.90;99.90;;;;;;5073375;28;20021;-76
2022/10/08 05:14:49;;;;;;;10.00;3.72;;;12.90;99.90;;;;;;5073217;28;20025;-77
2022/10/08 05:17:14;;;;;;;8.70;3.70;;;12.80;99.90;;;;;;5076465;28;20028;-77
2022/10/08 05:19:40;;;;;;;5.93;3.10;;;12.70;99.90;;;;;;5058243;28;20028;-75
2022/10/08 05:22:05;;;;;;;7.28;3.00;;;12.70;99.90;;;;;;5076029;28;20035;-75
2022/10/08 05:24:31;;;;;;;5.70;3.30;;;12.70;99.90;;;;;;5076028;28;20026;-77
2022/10/08 05:26:57;;;;;;;5.15;3.20;;;12.70;99.90;;;;;;5075727;28;20055;-75
2022/10/08 05:29:22;;;;;;;6.07;3.28;;;12.70;99.90;;;;;;5076199;28;20028;-77
2022/10/08 05:31:48;;;;;;;9.43;3.75;;;12.70;99.90;;;;;;5075913;28;20111;-76
2022/10/08 05:34:14;;;;;;;5.80;3.22;;;12.80;99.90;;;;;;5076130;28;20025;-76
2022/10/08 05:36:40;;;;;;;10.80;3.40;;;12.80;99.90;;;;;;5075812;28;20032;-77
2022/10/08 05:39:06;;;;;;;7.50;3.53;;;12.80;99.90;;;;;;5076069;28;20024;-77
2022/10/08 05:41:34;;;;;;;9.27;4.15;;;12.80;99.90;;;;;;5057862;28;20050;-76
2022/10/08 05:44:03;;;;;;;9.50;3.90;;;12.80;99.90;;;;;;5076026;28;20028;-75
2022/10/08 05:46:30;;;;;;;9.48;3.78;;;12.90;99.90;;;;;;5075622;28;20035;-76
2022/10/08 05:48:59;;;;;;;11.15;4.43;;;12.90;99.90;;;;;;5075595;28;20055;-76
2022/10/08 05:51:25;;;;;;;9.10;4.32;;;12.90;99.90;;;;;;5075573;28;20032;-76
2022/10/08 05:53:53;;;;;;;12.85;4.10;;;12.90;99.90;;;;;;5075766;28;20016;-76
2022/10/08 05:56:22;;;;;;;7.93;3.45;;;12.90;99.90;;;;;;5075478;28;20527;-77
2022/10/08 05:58:48;;;;;;;11.80;3.35;;;12.90;99.90;;;;;;5075470;28;20025;-76
2022/10/08 06:01:18;;;;;;;10.18;3.80;;;12.90;99.90;;;;;;5075394;28;20028;-76
2022/10/08 06:03:51;;;;;;;8.25;3.72;;;12.90;99.90;;;;;;5075923;28;20020;-76
2022/10/08 06:06:17;;;;;;;6.40;3.33;;;12.90;99.90;;;;;;5075215;28;20029;-77
2022/10/08 06:08:43;;;;;;;11.02;3.13;;;12.90;99.90;;;;;;5075539;28;20037;-75
2022/10/08 06:11:09;;;;;;;9.52;3.38;;;12.90;99.90;;;;;;5075196;28;20026;-76
2022/10/08 06:13:34;;;;;;;7.78;3.58;;;12.90;99.90;;;;;;5075950;28;20055;-76
2022/10/08 06:16:02;;;;;;;6.45;3.10;;;13.00;99.90;;;;;;5075125;28;20063;-76
2022/10/08 06:18:31;;;;;;;8.02;3.33;;;13.00;99.90;;;;;;5075308;28;20028;-76
2022/10/08 06:21:00;;;;;;;5.90;3.35;;;12.90;99.90;;;;;;5075002;28;20036;-75
2022/10/08 06:23:26;;;;;;;6.15;3.17;;;12.80;99.90;;;;;;5074923;28;20028;-76
2022/10/08 06:25:51;;;;;;;7.82;3.30;;;12.90;99.90;;;;;;5074658;28;20469;-75
2022/10/08 06:28:17;;;;;;;7.43;3.25;;;12.90;99.90;;;;;;5074623;28;20037;-77
2022/10/08 06:30:43;;;;;;;6.22;3.33;;;12.90;99.90;;;;;;5075071;28;20056;-76
2022/10/08 06:33:09;;;;;;;8.18;3.25;;;13.00;99.90;;;;;;5075040;28;20028;-76
2022/10/08 06:35:36;;;;;;;9.73;3.85;;;13.10;99.90;;;;;;5074944;28;20032;-74
2022/10/08 06:38:03;;;;;;;10.80;4.38;;;13.00;99.90;;;;;;5075217;28;20020;-75
2022/10/08 06:40:37;;;;;;;6.95;4.20;;;13.00;99.90;;;;;;5074582;28;20033;-76
2022/10/08 06:43:10;;;;;;;6.22;4.10;;;13.00;99.90;;;;;;5074861;28;20024;-77
2022/10/08 06:45:39;;;;;;;9.43;3.90;;;12.90;99.90;;;;;;5074986;28;20469;-76
2022/10/08 06:48:05;;;;;;;11.15;4.88;;;12.90;99.90;;;;;;5074997;28;20036;-75
2022/10/08 06:50:31;;;;;;;11.43;4.07;;;13.00;99.90;;;;;;5074399;28;20070;-76
2022/10/08 06:52:57;;;;;;;9.38;4.00;;;13.00;99.90;;;;;;5074399;28;20040;-76
2022/10/08 06:55:22;;;;;;;10.65;3.80;;;13.10;99.90;;;;;;5074306;28;20032;-76
2022/10/08 06:57:48;;;;;;;12.95;4.70;;;13.00;99.90;;;;;;5074281;28;20051;-77
2022/10/08 07:00:14;;;;;;;10.48;4.35;;;13.00;99.90;;;;;;5074474;28;20423;-76
2022/10/08 07:02:39;;;;;;;8.05;4.57;;;13.00;99.90;;;;;;5074059;28;20074;-77
2022/10/08 07:05:06;;;;;;;13.02;4.65;;;13.10;99.90;;;;;;5074084;28;20054;-75
2022/10/08 07:07:31;;;;;;;9.02;4.25;;;13.10;99.90;;;;;;5074621;28;20095;-75
2022/10/08 07:09:57;;;;;;;8.98;3.92;;;13.10;99.90;;;;;;5074029;28;20052;-76
2022/10/08 07:12:22;;;;;;;9.38;3.97;;;13.20;99.90;;;;;;5074573;28;20025;-75
2022/10/08 07:14:48;;;;;;;10.23;4.55;;;13.20;99.90;;;;;;5056013;28;20028;-76
2022/10/08 07:17:13;;;;;;;12.30;5.10;;;13.20;99.90;;;;;;5073877;28;20480;-75
2022/10/08 07:19:39;;;;;;;12.25;5.07;;;13.20;99.90;;;;;;5074139;28;20035;-75
2022/10/08 07:22:05;;;;;;;12.10;5.22;;;13.30;99.90;;;;;;5073838;28;20401;-76
2022/10/08 07:24:30;;;;;;;11.70;4.18;;;13.30;99.90;;;;;;5074071;28;20024;-77
2022/10/08 07:26:56;;;;;;;9.52;4.78;;;13.40;99.90;;;;;;5073430;28;20031;-77
2022/10/08 07:29:23;;;;;;;8.10;4.95;;;13.40;99.90;;;;;;5074049;28;20023;-76
2022/10/08 07:31:49;;;;;;;11.70;4.28;;;13.60;99.90;;;;;;5073778;28;20070;-75
2022/10/08 07:34:15;;;;;;;8.18;4.57;;;13.60;99.90;;;;;;5073662;28;20017;-76
2022/10/08 07:36:41;;;;;;;6.20;4.03;;;13.60;99.90;;;;;;5073874;28;20078;-76
2022/10/08 07:39:11;;;;;;;10.07;4.63;;;13.60;99.90;;;;;;5072990;28;20052;-76
2022/10/08 07:41:36;;;;;;;8.88;4.50;;;13.80;99.90;;;;;;5073967;28;20021;-75
2022/10/08 07:44:03;;;;;;;7.93;3.95;;;13.80;99.90;;;;;;5073768;28;20029;-76
2022/10/08 07:46:31;;;;;;;11.10;4.40;;;13.90;99.90;;;;;;5073250;28;20025;-75
2022/10/08 07:49:00;;;;;;;10.82;4.30;;;13.80;99.90;;;;;;5073355;28;20055;-75
2022/10/08 07:51:28;;;;;;;9.60;4.50;;;13.80;99.90;;;;;;5073337;28;20020;-75
2022/10/08 07:53:54;;;;;;;8.95;4.18;;;13.90;99.90;;;;;;5073318;28;20465;-76
2022/10/08 07:56:21;;;;;;;11.25;5.20;;;13.90;99.90;;;;;;5073495;28;20103;-74
2022/10/08 07:58:48;;;;;;;8.73;4.20;;;14.00;99.90;;;;;;5073314;28;20036;-76
2022/10/08 08:01:16;;;;;;;13.95;4.97;;;14.00;99.90;;;;;;5073336;28;20103;-76
2022/10/08 08:03:42;;;;;;;9.82;5.00;;;14.00;99.90;;;;;;5073320;28;20017;-76
2022/10/08 08:06:11;;;;;;;8.75;4.22;;;14.00;99.90;;;;;;5073053;28;20090;-76
2022/10/08 08:08:39;;;;;;;13.32;5.47;;;14.00;99.90;;;;;;5073103;28;20020;-76
2022/10/08 08:11:07;;;;;;;12.60;4.70;;;14.20;99.90;;;;;;5072997;28;20153;-77
2022/10/08 08:13:36;;;;;;;12.65;4.93;;;15.10;99.90;;;;;;5073604;28;20027;-75
2022/10/08 08:16:05;;;;;;;9.85;4.53;;;16.00;99.90;;;;;;5073727;28;20023;-75
2022/10/08 08:18:33;;;;;;;11.55;4.28;;;16.50;99.90;;;;;;5073331;28;20052;-76
2022/10/08 08:21:07;;;;;;;11.23;4.32;;;16.90;99.90;;;;;;5073097;28;20024;-77
2022/10/08 08:23:36;;;;;;;11.95;4.10;;;17.30;99.90;;;;;;5073120;28;20519;-76
2022/10/08 08:26:04;;;;;;;8.63;3.15;;;17.50;99.90;;;;;;5072964;28;20024;-78
2022/10/08 08:28:30;;;;;;;10.80;3.22;;;17.80;99.90;;;;;;5072817;28;20492;-78
2022/10/08 08:31:16;;;;;;;8.00;2.88;;;17.90;99.90;;;;;;5073003;28;20100;-77
2022/10/08 08:33:49;;;;;;;7.88;3.72;;;18.10;99.90;;;;;;5054640;28;20025;-78
2022/10/08 08:36:15;;;;;;;8.77;3.33;;;18.40;99.90;;;;;;5054660;28;20024;-74
2022/10/08 08:38:41;;;;;;;8.75;2.78;;;18.60;99.90;;;;;;5073242;28;20368;-75
2022/10/08 08:41:25;;;;;;;9.73;2.78;;;18.50;99.90;;;;;;5067866;28;20029;-75
2022/10/08 08:44:00;;;;;;;7.80;2.70;;;18.70;99.90;;;;;;5056429;28;20489;-74
2022/10/08 08:46:32;;;;;;;12.15;3.38;;;18.90;99.90;;;;;;5066378;28;20029;-74
2022/10/08 08:49:05;;;;;;;9.38;2.53;;;18.80;99.90;;;;;;5062526;28;20074;-78
2022/10/08 08:51:31;;;;;;;11.93;3.10;;;18.90;99.90;;;;;;5057785;28;20407;-76
2022/10/08 08:53:58;;;;;;;7.32;2.35;;;19.00;99.90;;;;;;5067460;28;20108;-76
2022/10/08 08:56:24;;;;;;;11.25;2.42;;;19.20;99.90;;;;;;5057208;28;20070;-75
2022/10/08 08:59:01;;;;;;;6.70;2.00;;;19.50;99.90;;;;;;5056508;28;20092;-75
2022/10/08 09:01:39;;;;;;;8.52;2.30;;;19.50;99.90;;;;;;5056971;28;20075;-73
2022/10/08 09:04:36;;;;;;;14.75;4.70;;;19.60;99.90;;;;;;5056900;28;20029;-76
2022/10/08 09:07:07;;;;;;;11.25;2.50;;;19.50;99.90;;;;;;5055968;28;20545;-76
2022/10/08 09:09:38;;;;;;;11.63;2.28;;;19.50;99.90;;;;;;5075632;28;20074;-75
2022/10/08 09:12:20;;;;;;;7.07;1.88;;;19.50;99.90;;;;;;5058060;28;20027;-76
2022/10/08 09:14:52;;;;;;;9.85;1.70;;;19.60;99.90;;;;;;5067521;28;20047;-75
2022/10/08 09:17:39;;;;;;;4.63;1.40;;;19.60;99.90;;;;;;5076288;28;20028;-74
2022/10/08 09:20:05;;;;;;;11.60;2.15;;;19.60;99.90;;;;;;5075703;28;20448;-74
2022/10/08 09:22:39;;;;;;;11.43;1.98;;;19.70;99.90;;;;;;5076080;28;20043;-75
2022/10/08 09:25:14;;;;;;;10.20;2.28;;;19.60;99.90;;;;;;5075976;28;20377;-76
2022/10/08 09:27:48;;;;;;;8.35;1.50;;;19.60;99.90;;;;;;5076082;28;20044;-77
2022/10/08 09:30:23;;;;;;;9.98;1.40;;;19.60;99.90;;;;;;5076271;28;20039;-77
2022/10/08 09:32:50;;;;;;;8.65;1.45;;;19.60;99.90;;;;;;5075896;28;20027;-79
2022/10/08 09:35:16;;;;;;;8.05;2.25;;;19.40;99.90;;;;;;5075554;28;20145;-77
2022/10/08 09:37:45;;;;;;;9.02;1.60;;;19.70;99.90;;;;;;5076061;28;20044;-75
2022/10/08 09:40:11;;;;;;;7.85;1.80;;;20.00;99.90;;;;;;5075987;28;20392;-76
2022/10/08 09:42:37;;;;;;;6.93;2.00;;;20.00;99.90;;;;;;5075733;28;20103;-77
2022/10/08 09:45:37;;;;;;;10.98;1.90;;;20.00;99.90;;;;;;5075784;28;20029;-79
2022/10/08 09:48:20;;;;;;;4.82;1.70;;;20.00;99.90;;;;;;5075744;28;20086;-78
2022/10/08 09:50:58;;;;;;;7.20;1.50;;;19.90;99.90;;;;;;5075925;28;20092;-77
2022/10/08 09:53:28;;;;;;;9.77;1.70;;;19.90;99.90;;;;;;5075971;28;20503;-77
2022/10/08 09:56:02;;;;;;;10.23;2.08;;;19.60;99.90;;;;;;5075482;28;20028;-76
2022/10/08 09:58:34;;;;;;;5.43;1.60;;;19.80;99.90;;;;;;5057471;28;20033;-76
2022/10/08 10:01:12;;;;;;;6.32;1.42;;;20.00;99.90;;;;;;5055023;28;20029;-76
2022/10/08 10:03:38;;;;;;;9.20;1.67;;;19.90;99.90;;;;;;5055343;28;20389;-79
2022/10/08 10:06:04;;;;;;;6.43;1.58;;;20.00;99.90;;;;;;5055213;28;20108;-78
2022/10/08 10:08:53;;;;;;;7.53;2.03;;;20.10;99.90;;;;;;5055815;28;20475;-76
2022/10/08 10:11:24;;;;;;;14.82;2.33;;;20.20;99.90;;;;;;5055842;28;20021;-77
2022/10/08 10:13:50;;;;;;;7.10;1.30;;;20.10;99.70;;;;;;5055913;28;20553;-81
2022/10/08 10:16:37;;;;;;;6.35;1.40;;;20.10;99.90;;;;;;5055084;28;20056;-76
2022/10/08 10:19:13;;;;;;;5.68;1.40;;;20.20;99.90;;;;;;5055334;28;20505;-77
2022/10/08 10:22:10;;;;;;;4.40;1.38;;;20.30;99.90;;;;;;5055284;28;20032;-77
2022/10/08 10:24:44;;;;;;;6.80;1.42;;;20.00;99.90;;;;;;5036727;28;20492;-80
2022/10/08 10:27:28;;;;;;;8.38;1.13;;;19.30;99.90;;;;;;5054627;28;20126;-78
2022/10/08 10:30:03;;;;;;;5.78;1.55;;;19.40;99.90;;;;;;5036866;28;20025;-77
2022/10/08 10:32:35;;;;;;;7.05;1.45;;;19.40;99.90;;;;;;5054847;28;20086;-80
2022/10/08 10:35:15;;;;;;;3.63;1.15;;;19.30;99.90;;;;;;5060389;28;20021;-77
2022/10/08 10:37:46;;;;;;;;;;;19.10;99.60;;;;;;5055692;28;20025;-77
2022/10/08 10:40:28;;;;;;;7.40;2.00;;;18.70;99.90;;;;;;5054881;28;19912;-75
2022/10/08 10:43:21;;;;;;;11.77;1.80;;;18.40;99.90;;;;;;5054975;28;20017;-76
2022/10/08 10:45:54;;;;;;;4.88;1.35;;;18.30;99.90;;;;;;5055355;28;20029;-79
2022/10/08 10:48:20;;;;;;;7.25;1.33;;;18.50;99.90;;;;;;5054525;28;20431;-81
2022/10/08 10:51:11;;;;;;;9.48;1.90;;;19.10;99.90;;;;;;5054720;28;20104;-76
2022/10/08 10:54:02;;;;;;;5.10;1.40;;;19.10;99.90;;;;;;5053367;28;20435;-77
2022/10/08 10:56:35;;;;;;;5.85;1.48;;;19.00;99.70;;;;;;5035650;28;20052;-77
2022/10/08 10:59:25;;;;;;;5.38;1.42;;;19.20;99.00;;;;;;5054720;28;20547;-80
2022/10/08 11:02:02;;;;;;;9.23;1.60;;;19.10;98.50;;;;;;5036267;28;20111;-76
2022/10/08 11:04:33;;;;;;;3.83;0.90;;;18.90;98.10;;;;;;5052671;28;20028;-78
2022/10/08 11:07:27;;;;;;;4.05;0.98;;;19.00;97.30;;;;;;5053702;28;20100;-79
2022/10/08 11:10:13;;;;;;;3.38;1.25;;;18.70;97.20;;;;;;5035161;28;20123;-76
2022/10/08 11:12:57;;;;;;;2.95;0.98;;;18.60;98.00;;;;;;5021905;28;20041;-76
2022/10/08 11:15:38;;;;;;;3.90;1.25;;;18.60;98.30;;;;;;5053241;28;20017;-80
2022/10/08 11:18:34;;;;;;;4.63;1.33;;;18.50;98.50;;;;;;5053435;28;20477;-77
2022/10/08 11:21:23;;;;;;;4.25;1.30;;;18.60;98.70;;;;;;5053402;28;20017;-77
2022/10/08 11:24:06;;;;;;;6.20;1.15;;;18.70;99.10;;;;;;5053832;28;20025;-77
2022/10/08 11:26:43;;;;;;;5.80;1.05;;;18.40;98.70;;;;;;5035635;28;20485;-80
2022/10/08 11:29:42;;;;;;;5.38;1.10;;;18.30;98.80;;;;;;5054007;28;20465;-77
2022/10/08 11:32:16;;;;;;;5.85;1.30;;;18.40;98.40;;;;;;5054045;28;20075;-77
2022/10/08 11:35:13;;;;;;;5.22;1.60;;;18.70;98.30;;;;;;5053941;28;20396;-78
2022/10/08 11:37:48;;;;;;;5.78;1.42;;;18.80;98.30;;;;;;5022528;28;20584;-79
2022/10/08 11:40:35;;;;;;;4.95;1.10;;;18.90;97.50;;;;;;5053854;28;20424;-78
2022/10/08 11:43:31;;;;;;;2.15;0.70;;;19.10;97.50;;;;;;5053880;28;20017;-76
2022/10/08 11:46:21;;;;;;;3.50;0.88;;;19.10;97.20;;;;;;5053371;28;20040;-77
2022/10/08 11:48:47;;;;;;;4.65;1.42;;;19.00;96.90;;;;;;5035319;28;20045;-79
2022/10/08 11:51:18;;;;;;;5.10;1.00;;;19.00;96.70;;;;;;5053635;28;20056;-79
2022/10/08 11:54:22;;;;;;;8.25;1.42;;;18.80;97.50;;;;;;5035476;28;20022;-77
2022/10/08 11:57:33;;;;;;;4.80;1.27;;;18.80;97.30;;;;;;5053631;28;20419;-77
2022/10/08 12:00:25;;;;;;;7.40;1.73;;;18.80;97.00;;;;;;5050375;28;20024;-75
2022/10/08 12:02:53;;;;;;;5.45;1.20;;;18.80;96.80;;;;;;5053313;28;20029;-80
2022/10/08 12:05:22;;;;;;;3.75;1.20;;;19.00;96.40;;;;;;5053268;28;20036;-76
2022/10/08 12:07:53;;;;;;;5.00;2.00;;;19.20;96.20;;;;;;5053809;28;20031;-80
2022/10/08 12:10:19;;;;;;;5.95;1.15;;;19.30;96.00;;;;;;5053545;28;20048;-77
2022/10/08 12:12:47;;;;;;;5.68;1.50;;;19.40;96.30;;;;;;5053754;28;20390;-78
2022/10/08 12:15:22;;;;;;;3.83;0.95;;;19.50;95.90;;;;;;5053752;28;20063;-76
2022/10/08 12:17:55;;;;;;;3.65;1.05;;;19.50;95.30;;;;;;5053173;28;20025;-77
2022/10/08 12:20:22;;;;;;;5.95;1.50;;;19.70;95.40;;;;;;5053093;28;20017;-80
2022/10/08 12:22:59;;;;;;;3.90;1.17;;;19.70;95.20;;;;;;5053358;28;20477;-76
2022/10/08 12:25:37;;;;;;;6.82;1.45;;;19.50;95.60;;;;;;5056368;28;20045;-77
2022/10/08 12:28:20;;;;;;;3.05;0.95;;;19.40;95.20;;;;;;5057040;28;20112;-78
2022/10/08 12:31:01;;;;;;;2.88;1.00;;;19.30;94.50;;;;;;5039162;28;20115;-80
2022/10/08 12:33:28;;;;;;;3.20;1.10;;;19.20;94.50;;;;;;5057296;28;20017;-81
2022/10/08 12:36:08;;;;;;;7.70;1.10;;;19.20;94.50;;;;;;5039025;28;20434;-78
2022/10/08 12:39:00;;;;;;;6.10;1.20;;;19.10;94.90;;;;;;5038856;28;20028;-76
2022/10/08 12:41:29;;;;;;;5.07;0.88;;;19.00;94.20;;;;;;5053584;28;20044;-77
2022/10/08 12:44:06;;;;;;;2.90;1.38;;;19.00;94.80;;;;;;5057146;28;20389;-76
2022/10/08 12:46:45;;;;;;;7.97;1.48;;;19.10;94.70;;;;;;5057123;28;20486;-75
2022/10/08 12:49:30;;;;;;;2.38;0.70;;;19.00;95.00;;;;;;5057095;28;20024;-77
2022/10/08 12:52:09;;;;;;;4.97;1.58;;;19.20;94.70;;;;;;5056971;28;20096;-77
2022/10/08 12:54:38;;;;;;;4.07;0.98;;;19.20;95.00;;;;;;5057118;28;20013;-80
2022/10/08 12:57:10;;;;;;;5.43;1.10;;;19.20;94.90;;;;;;5056887;28;20036;-76
2022/10/08 12:59:39;;;;;;;4.10;1.38;;;19.20;94.80;;;;;;5056918;28;20053;-80
2022/10/08 13:02:23;;;;;;;5.32;1.17;;;19.20;94.60;;;;;;5056515;28;20024;-80
2022/10/08 13:04:49;;;;;;;5.13;1.80;;;19.30;94.70;;;;;;5057034;28;20021;-76
2022/10/08 13:07:27;;;;;;;5.13;1.30;;;19.40;95.20;;;;;;5056347;28;20104;-78
2022/10/08 13:09:55;;;;;;;7.63;1.83;;;19.50;94.80;;;;;;5056952;28;20083;-79
2022/10/08 13:12:21;;;;;;;9.00;2.05;;;19.60;94.90;;;;;;5059937;28;20028;-75
2022/10/08 13:15:02;;;;;;;5.68;1.50;;;19.70;94.70;;;;;;5063102;28;20013;-77